Time;durP1;ratioP1;P1;durP2;ratioP2;P2;SDS_P1;SDS_P2;PMS_P1;PMS_P2;Temp;Humidity;BMP_temperature;BMP_pressure;BME280_temperature;BME280_humidity;BME280_pressure;Samples;Min_cycle;Max_cycle;Signal;HPM_P1;HPM_P2
2023/12/13 04:57:36;;;;;;;;;;;;;;;;;;6224925;22;19919;-74
2023/12/13 05:00:06;;;;;;;;;;;;;;;;;;6247557;23;19927;-75
2023/12/13 05:02:33;;;;;;;;;;;;;;;;;;6247428;23;19999;-73
2023/12/13 05:05:00;;;;;;;;;;;;;;;;;;6247359;23;19926;-70
2023/12/13 05:07:27;;;;;;;;;;;;;;;;;;6247196;23;20269;-70
2023/12/13 05:09:55;;;;;;;;;;;;;;;;;;6247403;23;19920;-70
2023/12/13 05:12:22;;;;;;;;;;;;;;;;;;6247358;23;19965;-71
2023/12/13 05:14:49;;;;;;;;;;;;;;;;;;6247320;23;19923;-71
2023/12/13 05:17:16;;;;;;;;;;;;;;;;;;6246886;23;20297;-71
2023/12/13 05:19:42;;;;;;;;;;;;;;;;;;6247287;23;19919;-71
2023/12/13 05:22:09;;;;;;;;;;;;;;;;;;6247355;23;19924;-72
2023/12/13 05:24:36;;;;;;;;;;;;;;;;;;6247194;23;19919;-72
2023/12/13 05:27:03;;;;;;;;;;;;;;;;;;6247031;23;19926;-72
2023/12/13 05:29:30;;;;;;;;;;;;;;;;;;6247104;23;19926;-72
2023/12/13 05:31:57;;;;;;;;;;;;;;;;;;6246790;23;20259;-72
2023/12/13 05:34:24;;;;;;;;;;;;;;;;;;6247371;23;19927;-73
2023/12/13 05:36:51;;;;;;;;;;;;;;;;;;6247035;23;19919;-72
2023/12/13 05:39:18;;;;;;;;;;;;;;;;;;6247040;23;20002;-72
2023/12/13 05:41:45;;;;;;;;;;;;;;;;;;6247068;23;19927;-71
2023/12/13 05:44:12;;;;;;;;;;;;;;;;;;6246973;23;19943;-72
2023/12/13 05:46:39;;;;;;;;;;;;;;;;;;6247063;23;19926;-73
2023/12/13 05:49:05;;;;;;;;;;;;;;;;;;6247259;23;19919;-72
2023/12/13 05:51:32;;;;;;;;;;;;;;;;;;6247069;23;19926;-72
2023/12/13 05:53:59;;;;;;;;;;;;;;;;;;6246909;23;19926;-73
2023/12/13 05:56:27;;;;;;;;;;;;;;;;;;6246876;23;19927;-73
2023/12/13 05:58:54;;;;;;;;;;;;;;;;;;6246735;23;19966;-72
2023/12/13 06:01:21;;;;;;;;;;;;;;;;;;6246931;23;19927;-72
2023/12/13 06:03:48;;;;;;;;;;;;;;;;;;6246934;23;19923;-71
2023/12/13 06:06:14;;;;;;;;;;;;;;;;;;6246683;23;19920;-71
2023/12/13 06:08:41;;;;;;;;;;;;;;;;;;6246804;23;19919;-71
2023/12/13 06:11:08;;;;;;;;;;;;;;;;;;6246638;23;19927;-71
2023/12/13 06:13:35;;;;;;;;;;;;;;;;;;6246337;23;19919;-71
2023/12/13 06:16:02;;;;;;;;;;;;;;;;;;6246592;23;19985;-71
2023/12/13 06:18:29;;;;;;;;;;;;;;;;;;6246737;23;19920;-72
2023/12/13 06:20:56;;;;;;;;;;;;;;;;;;6246266;23;20258;-71
2023/12/13 06:23:24;;;;;;;;;;;;;;;;;;6246672;23;19959;-71
2023/12/13 06:25:50;;;;;;;;;;;;;;;;;;6246367;23;20438;-71
2023/12/13 11:16:32;;;;;;;;;;;;;;;;;;6215290;22;20244;-72
2023/12/13 11:18:59;;;;;;;;;;;;;;;;;;6250603;23;19927;-72
2023/12/13 11:21:26;;;;;;;;;;;;;;;;;;6251200;23;20351;-71
2023/12/13 11:23:53;;;;;;;;;;;;;;;;;;6250763;23;19986;-73
2023/12/13 11:26:19;;;;;;;;;;;;;;;;;;6250035;23;19919;-72
2023/12/13 11:28:46;;;;;;;;;;;;;;;;;;6249508;22;19930;-68
2023/12/13 11:31:13;;;;;;;;;;;;;;;;;;6248532;23;19927;-67
2023/12/13 11:33:40;;;;;;;;;;;;;;;;;;6247776;23;20346;-67
2023/12/13 11:36:07;;;;;;;;;;;;;;;;;;6249225;23;19927;-67
2023/12/13 11:38:34;;;;;;;;;;;;;;;;;;6247767;23;19919;-68
2023/12/13 11:41:01;;;;;;;;;;;;;;;;;;6249113;23;19919;-68
2023/12/13 11:43:28;;;;;;;;;;;;;;;;;;6248125;23;19926;-68
2023/12/13 11:45:55;;;;;;;;;;;;;;;;;;6248101;23;19927;-68
2023/12/13 11:48:22;;;;;;;;;;;;;;;;;;6247650;23;20343;-68
2023/12/13 11:50:49;;;;;;;;;;;;;;;;;;6247695;23;20331;-68
2023/12/13 11:53:16;;;;;;;;;;;;;;;;;;6248276;23;19930;-67
2023/12/13 11:55:43;;;;;;;;;;;;;;;;;;6248461;23;19920;-68
2023/12/13 11:58:10;;;;;;;;;;;;;;;;;;6248198;23;19919;-69
2023/12/13 12:00:37;;;;;;;;;;;;;;;;;;6248328;23;19924;-69
2023/12/13 12:03:04;;;;;;;;;;;;;;;;;;6247891;23;19926;-68
2023/12/13 12:05:31;;;;;;;;;;;;;;;;;;6247964;23;19923;-68
2023/12/13 12:07:58;;;;;;;;;;;;;;;;;;6247776;23;19920;-68
2023/12/13 12:10:25;;;;;;;;;;;;;;;;;;6247240;23;19923;-69
2023/12/13 12:12:52;;;;;;;;;;;;;;;;;;6247965;23;19920;-69
2023/12/13 12:15:19;;;;;;;;;;;;;;;;;;6247857;23;19950;-69
2023/12/13 12:17:46;;;;;;;;;;;;;;;;;;6247789;23;20294;-69
2023/12/13 12:20:13;;;;;;;;;;;;;;;;;;6247498;23;19926;-69
2023/12/13 12:22:40;;;;;;;;;;;;;;;;;;6247153;23;20361;-69
2023/12/13 12:25:07;;;;;;;;;;;;;;;;;;6247736;23;19923;-69
2023/12/13 12:27:35;;;;;;;;;;;;;;;;;;6247673;23;20342;-69
2023/12/13 12:30:03;;;;;;;;;;;;;;;;;;6247123;23;19920;-69
2023/12/13 12:32:30;;;;;;;;;;;;;;;;;;6247980;23;19927;-69
2023/12/13 12:34:57;;;;;;;;;;;;;;;;;;6247406;23;19924;-69
2023/12/13 12:37:24;;;;;;;;;;;;;;;;;;6247611;23;19920;-68
2023/12/13 12:39:51;;;;;;;;;;;;;;;;;;6247383;23;19996;-68
2023/12/13 12:42:18;;;;;;;;;;;;;;;;;;6247409;23;19920;-69
2023/12/13 12:44:45;;;;;;;;;;;;;;;;;;6247422;23;19982;-69
2023/12/13 12:47:12;;;;;;;;;;;;;;;;;;6247691;23;19919;-68
2023/12/13 12:49:39;;;;;;;;;;;;;;;;;;6247326;23;19920;-69
2023/12/13 12:52:06;;;;;;;;;;;;;;;;;;6247580;23;19927;-69
2023/12/13 12:54:33;;;;;;;;;;;;;;;;;;6248081;23;19920;-69
2023/12/13 12:57:00;;;;;;;;;;;;;;;;;;6247294;23;19920;-69
2023/12/13 12:59:27;;;;;;;;;;;;;;;;;;6246720;23;19923;-69
2023/12/13 13:01:54;;;;;;;;;;;;;;;;;;6247047;23;20263;-69
2023/12/13 13:04:21;;;;;;;;;;;;;;;;;;6246979;23;20002;-69
2023/12/13 13:06:48;;;;;;;;;;;;;;;;;;6247389;23;19930;-69
2023/12/13 13:09:14;;;;;;;;;;;;;;;;;;6247257;23;19926;-68
2023/12/13 13:11:42;;;;;;;;;;;;;;;;;;6247156;23;19927;-68
2023/12/13 13:14:08;;;;;;;;;;;;;;;;;;6247067;23;19926;-69
2023/12/13 13:16:36;;;;;;;;;;;;;;;;;;6248162;23;19919;-69
2023/12/13 13:19:05;;;;;;;;;;;;;;;;;;6246911;23;19920;-70
2023/12/13 13:21:32;;;;;;;;;;;;;;;;;;6247138;23;19920;-70
2023/12/13 13:23:59;;;;;;;;;;;;;;;;;;6246881;23;20253;-69
2023/12/13 13:26:26;;;;;;;;;;;;;;;;;;6247007;23;19982;-68
2023/12/13 13:28:54;;;;;;;;;;;;;;;;;;6246749;23;19920;-68
2023/12/13 13:31:21;;;;;;;;;;;;;;;;;;6246874;23;19920;-67
2023/12/13 13:33:48;;;;;;;;;;;;;;;;;;6246656;23;19926;-72
2023/12/13 13:36:15;;;;;;;;;;;;;;;;;;6246979;23;19920;-69
2023/12/13 13:38:42;;;;;;;;;;;;;;;;;;6247058;23;19920;-67
2023/12/13 13:41:09;;;;;;;;;;;;;;;;;;6246440;23;19986;-67
2023/12/13 13:43:35;;;;;;;;;;;;;;;;;;6246987;23;19919;-67
2023/12/13 13:46:02;;;;;;;;;;;;;;;;;;6246882;23;19942;-67
2023/12/13 13:48:30;;;;;;;;;;;;;;;;;;6246840;23;19927;-67
2023/12/13 13:50:57;;;;;;;;;;;;;;;;;;6247264;23;20003;-68
2023/12/13 13:53:25;;;;;;;;;;;;;;;;;;6246459;23;20332;-69
2023/12/13 13:55:52;;;;;;;;;;;;;;;;;;6246785;23;19920;-69
2023/12/13 13:58:19;;;;;;;;;;;;;;;;;;6246723;23;19927;-69
2023/12/13 14:00:46;;;;;;;;;;;;;;;;;;6246818;23;19958;-69
2023/12/13 14:03:13;;;;;;;;;;;;;;;;;;6246644;23;19919;-69
2023/12/13 14:05:40;;;;;;;;;;;;;;;;;;6246318;23;20361;-69
2023/12/13 14:08:08;;;;;;;;;;;;;;;;;;6247240;23;19919;-69
2023/12/13 14:10:35;;;;;;;;;;;;;;;;;;6246550;23;19997;-69
2023/12/13 14:13:02;;;;;;;;;;;;;;;;;;6246735;23;19942;-69
2023/12/13 14:15:29;;;;;;;;;;;;;;;;;;6246532;23;19920;-69
2023/12/13 14:17:55;;;;;;;;;;;;;;;;;;6246491;23;19927;-69
2023/12/13 14:20:23;;;;;;;;;;;;;;;;;;6246902;23;19920;-69
2023/12/13 14:22:50;;;;;;;;;;;;;;;;;;6247285;23;19920;-69
2023/12/13 14:25:17;;;;;;;;;;;;;;;;;;6247047;23;19991;-68
2023/12/13 14:27:43;;;;;;;;;;;;;;;;;;6247048;23;19919;-69
2023/12/13 14:30:10;;;;;;;;;;;;;;;;;;6246304;23;19920;-69
2023/12/13 14:32:38;;;;;;;;;;;;;;;;;;6246937;23;19919;-70
2023/12/13 14:35:06;;;;;;;;;;;;;;;;;;6246733;23;19989;-69
2023/12/13 14:37:38;;;;;;;;;;;;;;;;;;6246855;23;20339;-69
2023/12/13 14:40:05;;;;;;;;;;;;;;;;;;6247157;23;19920;-70
2023/12/13 14:42:32;;;;;;;;;;;;;;;;;;6247774;23;19926;-70
2023/12/13 14:44:59;;;;;;;;;;;;;;;;;;6247448;23;19919;-69
2023/12/13 14:47:26;;;;;;;;;;;;;;;;;;6246502;23;19920;-70
2023/12/13 14:49:53;;;;;;;;;;;;;;;;;;6246061;23;20332;-70
2023/12/13 14:52:20;;;;;;;;;;;;;;;;;;6247497;23;19920;-70
2023/12/13 14:54:47;;;;;;;;;;;;;;;;;;6249539;23;19919;-70
2023/12/13 14:57:13;;;;;;;;;;;;;;;;;;6250770;23;19919;-69
2023/12/13 14:59:41;;;;;;;;;;;;;;;;;;6251338;23;19926;-71
2023/12/13 15:02:08;;;;;;;;;;;;;;;;;;6251421;23;20306;-70
2023/12/13 15:04:36;;;;;;;;;;;;;;;;;;6247809;23;19926;-70
2023/12/13 15:07:04;;;;;;;;;;;;;;;;;;6247816;23;19920;-70
2023/12/13 15:09:31;;;;;;;;;;;;;;;;;;6247289;23;19926;-69
2023/12/13 15:11:58;;;;;;;;;;;;;;;;;;6246640;23;19977;-69
2023/12/13 15:14:25;;;;;;;;;;;;;;;;;;6247230;23;19919;-70
2023/12/13 15:16:52;;;;;;;;;;;;;;;;;;6247041;23;19926;-70
2023/12/13 15:19:19;;;;;;;;;;;;;;;;;;6247001;23;19920;-70
2023/12/13 15:21:47;;;;;;;;;;;;;;;;;;6246879;23;19920;-70
2023/12/13 15:24:14;;;;;;;;;;;;;;;;;;6246673;23;20232;-70
2023/12/13 15:26:41;;;;;;;;;;;;;;;;;;6246968;23;19926;-69
2023/12/13 15:29:08;;;;;;;;;;;;;;;;;;6246162;23;19924;-69
2023/12/13 15:31:35;;;;;;;;;;;;;;;;;;6246344;23;19920;-69
2023/12/13 15:34:02;;;;;;;;;;;;;;;;;;6247065;23;19920;-69
2023/12/13 15:36:29;;;;;;;;;;;;;;;;;;6246068;23;20398;-70
2023/12/13 15:39:01;;;;;;;;;;;;;;;;;;6245915;23;19954;-70
2023/12/13 15:41:28;;;;;;;;;;;;;;;;;;6246436;23;19923;-70
2023/12/13 15:43:55;;;;;;;;;;;;;;;;;;6246255;23;19926;-69
2023/12/13 15:46:22;;;;;;;;;;;;;;;;;;6248235;23;20243;-70
2023/12/13 15:48:49;;;;;;;;;;;;;;;;;;6248071;23;19924;-70
2023/12/13 15:51:16;;;;;;;;;;;;;;;;;;6247785;23;19920;-69
2023/12/13 15:53:43;;;;;;;;;;;;;;;;;;6248277;23;19919;-69
2023/12/13 15:56:10;;;;;;;;;;;;;;;;;;6248012;23;19970;-69
2023/12/13 15:58:37;;;;;;;;;;;;;;;;;;6247539;23;20263;-69
2023/12/13 16:01:04;;;;;;;;;;;;;;;;;;6248017;23;19919;-69
2023/12/13 16:03:31;;;;;;;;;;;;;;;;;;6248060;23;19966;-70
2023/12/13 16:05:58;;;;;;;;;;;;;;;;;;6248242;23;19919;-70
2023/12/13 16:08:25;;;;;;;;;;;;;;;;;;6247855;23;19919;-70
2023/12/13 16:10:52;;;;;;;;;;;;;;;;;;6248223;23;19919;-69
2023/12/13 16:13:19;;;;;;;;;;;;;;;;;;6248345;23;19923;-70
2023/12/13 16:15:46;;;;;;;;;;;;;;;;;;6248272;23;19923;-70
2023/12/13 16:18:13;;;;;;;;;;;;;;;;;;6247867;23;19919;-70
2023/12/13 16:20:40;;;;;;;;;;;;;;;;;;6247928;23;19947;-70
2023/12/13 16:23:07;;;;;;;;;;;;;;;;;;6247954;23;19927;-69
2023/12/13 16:25:34;;;;;;;;;;;;;;;;;;6248909;23;19926;-69
2023/12/13 16:28:02;;;;;;;;;;;;;;;;;;6247638;23;19919;-69
2023/12/13 16:30:29;;;;;;;;;;;;;;;;;;6247874;23;19956;-69
2023/12/13 16:32:56;;;;;;;;;;;;;;;;;;6247841;23;19927;-69
2023/12/13 16:35:23;;;;;;;;;;;;;;;;;;6247906;23;20302;-68
2023/12/13 16:37:49;;;;;;;;;;;;;;;;;;6247827;23;19923;-69
2023/12/13 16:40:16;;;;;;;;;;;;;;;;;;6247445;23;20347;-69
2023/12/13 16:42:43;;;;;;;;;;;;;;;;;;6247660;23;19920;-69
2023/12/13 16:45:11;;;;;;;;;;;;;;;;;;6247219;23;19919;-69
2023/12/13 16:47:38;;;;;;;;;;;;;;;;;;6247119;23;20354;-69
2023/12/13 16:50:07;;;;;;;;;;;;;;;;;;6248638;23;19927;-69
2023/12/13 16:52:34;;;;;;;;;;;;;;;;;;6248702;23;19923;-69
2023/12/13 16:55:01;;;;;;;;;;;;;;;;;;6247620;23;19927;-69
2023/12/13 16:57:28;;;;;;;;;;;;;;;;;;6247412;23;19986;-69
2023/12/13 16:59:56;;;;;;;;;;;;;;;;;;6247563;23;19926;-69
2023/12/13 17:02:23;;;;;;;;;;;;;;;;;;6247542;23;19920;-69
2023/12/13 17:04:50;;;;;;;;;;;;;;;;;;6248250;23;19919;-68
2023/12/13 17:07:22;;;;;;;;;;;;;;;;;;6247792;23;19923;-69
2023/12/13 17:09:49;;;;;;;;;;;;;;;;;;6247686;23;19925;-69
2023/12/13 17:12:17;;;;;;;;;;;;;;;;;;6247570;23;19945;-69
2023/12/13 17:14:44;;;;;;;;;;;;;;;;;;6247457;23;19925;-68
2023/12/13 17:17:11;;;;;;;;;;;;;;;;;;6247336;23;19919;-68
2023/12/13 17:19:39;;;;;;;;;;;;;;;;;;6246927;23;20299;-68
2023/12/13 17:22:06;;;;;;;;;;;;;;;;;;6247342;23;19976;-68
2023/12/13 17:24:32;;;;;;;;;;;;;;;;;;6247327;23;19919;-69
2023/12/13 17:26:59;;;;;;;;;;;;;;;;;;6247387;23;19931;-68
2023/12/13 17:29:26;;;;;;;;;;;;;;;;;;6246690;23;19954;-68
2023/12/13 17:31:53;;;;;;;;;;;;;;;;;;6247239;23;19943;-69
2023/12/13 17:34:20;;;;;;;;;;;;;;;;;;6247226;23;19924;-68
2023/12/13 17:36:47;;;;;;;;;;;;;;;;;;6245757;22;19950;-71
2023/12/13 17:39:15;;;;;;;;;;;;;;;;;;6247425;23;19931;-70
2023/12/13 17:41:42;;;;;;;;;;;;;;;;;;6247501;23;19950;-69
2023/12/13 17:44:09;;;;;;;;;;;;;;;;;;6247085;23;20342;-69
2023/12/13 17:46:37;;;;;;;;;;;;;;;;;;6247023;23;19927;-70
2023/12/13 17:49:04;;;;;;;;;;;;;;;;;;6247296;23;19930;-70
2023/12/13 17:51:31;;;;;;;;;;;;;;;;;;6247089;23;19920;-70
2023/12/13 17:53:57;;;;;;;;;;;;;;;;;;6247106;23;19919;-70
2023/12/13 17:56:24;;;;;;;;;;;;;;;;;;6247034;23;20265;-70
2023/12/13 17:58:51;;;;;;;;;;;;;;;;;;6246652;23;20365;-71
2023/12/13 18:01:18;;;;;;;;;;;;;;;;;;6247197;23;19919;-70
2023/12/13 18:03:45;;;;;;;;;;;;;;;;;;6246851;23;20443;-71
2023/12/13 18:06:12;;;;;;;;;;;;;;;;;;6246827;23;20309;-70
2023/12/13 18:08:42;;;;;;;;;;;;;;;;;;6246790;23;19955;-70
2023/12/13 18:11:09;;;;;;;;;;;;;;;;;;6246979;23;19920;-69
2023/12/13 18:13:38;;;;;;;;;;;;;;;;;;6247670;23;19977;-72
2023/12/13 18:16:05;;;;;;;;;;;;;;;;;;6246660;23;19926;-72
2023/12/13 18:18:32;;;;;;;;;;;;;;;;;;6247176;23;19927;-72
2023/12/13 18:20:59;;;;;;;;;;;;;;;;;;6246986;23;19920;-72
2023/12/13 18:23:26;;;;;;;;;;;;;;;;;;6246810;23;19944;-71
2023/12/13 18:25:54;;;;;;;;;;;;;;;;;;6247049;23;19927;-72
2023/12/13 18:28:21;;;;;;;;;;;;;;;;;;6246705;23;20410;-72
2023/12/13 18:30:48;;;;;;;;;;;;;;;;;;6247241;23;19920;-71
2023/12/13 18:33:15;;;;;;;;;;;;;;;;;;6246664;23;20244;-72
2023/12/13 18:35:42;;;;;;;;;;;;;;;;;;6246986;23;19927;-72
2023/12/13 18:38:09;;;;;;;;;;;;;;;;;;6246853;23;19920;-72
2023/12/13 18:40:36;;;;;;;;;;;;;;;;;;6247138;23;19974;-72
2023/12/13 18:43:02;;;;;;;;;;;;;;;;;;6246966;23;19920;-71
2023/12/13 18:45:29;;;;;;;;;;;;;;;;;;6247035;23;19919;-73
2023/12/13 18:47:58;;;;;;;;;;;;;;;;;;6247105;23;19926;-72
2023/12/13 18:50:25;;;;;;;;;;;;;;;;;;6247619;23;19931;-72
2023/12/13 18:52:52;;;;;;;;;;;;;;;;;;6246799;23;19942;-71
2023/12/13 18:55:19;;;;;;;;;;;;;;;;;;6246918;23;19920;-73
2023/12/13 18:57:48;;;;;;;;;;;;;;;;;;6247094;23;19923;-74
2023/12/13 19:00:15;;;;;;;;;;;;;;;;;;6247025;23;20003;-73
2023/12/13 19:02:42;;;;;;;;;;;;;;;;;;6246676;23;20374;-74
2023/12/13 19:05:09;;;;;;;;;;;;;;;;;;6246901;23;19919;-73
2023/12/13 19:07:36;;;;;;;;;;;;;;;;;;6246672;23;19976;-73
2023/12/13 19:10:03;;;;;;;;;;;;;;;;;;6246710;23;20301;-72
2023/12/13 19:12:30;;;;;;;;;;;;;;;;;;6246406;23;19966;-73
2023/12/13 19:14:57;;;;;;;;;;;;;;;;;;6246889;23;19920;-72
2023/12/13 19:17:24;;;;;;;;;;;;;;;;;;6246620;23;19920;-73
2023/12/13 19:19:52;;;;;;;;;;;;;;;;;;6246292;23;22245;-73
2023/12/13 19:22:19;;;;;;;;;;;;;;;;;;6248620;23;19927;-73
2023/12/13 19:24:46;;;;;;;;;;;;;;;;;;6248776;23;19919;-73
2023/12/13 19:27:14;;;;;;;;;;;;;;;;;;6249793;23;19926;-71
2023/12/13 19:29:41;;;;;;;;;;;;;;;;;;6248496;23;20010;-72
2023/12/13 19:32:08;;;;;;;;;;;;;;;;;;6248485;23;19919;-72
2023/12/13 19:34:35;;;;;;;;;;;;;;;;;;6248698;23;19924;-72
2023/12/13 19:37:01;;;;;;;;;;;;;;;;;;6248250;23;19920;-72
2023/12/13 19:39:28;;;;;;;;;;;;;;;;;;6248472;23;19920;-72
2023/12/13 19:41:55;;;;;;;;;;;;;;;;;;6248385;23;19924;-73
2023/12/13 19:44:22;;;;;;;;;;;;;;;;;;6248669;23;19920;-72
2023/12/13 19:46:49;;;;;;;;;;;;;;;;;;6248587;23;19920;-70
2023/12/13 19:49:16;;;;;;;;;;;;;;;;;;6250038;23;19920;-71
2023/12/13 19:51:43;;;;;;;;;;;;;;;;;;6249958;23;19919;-71
2023/12/13 19:54:10;;;;;;;;;;;;;;;;;;6248491;23;19927;-71
2023/12/13 19:56:37;;;;;;;;;;;;;;;;;;6248487;23;19920;-69
2023/12/13 19:59:04;;;;;;;;;;;;;;;;;;6248443;23;19919;-73
2023/12/13 20:01:32;;;;;;;;;;;;;;;;;;6248376;23;19920;-73
2023/12/13 20:03:59;;;;;;;;;;;;;;;;;;6248499;23;19920;-73
2023/12/13 20:06:26;;;;;;;;;;;;;;;;;;6248291;23;19951;-74
2023/12/13 20:08:52;;;;;;;;;;;;;;;;;;6248369;23;19926;-72
2023/12/13 20:11:19;;;;;;;;;;;;;;;;;;6248587;23;20299;-73
2023/12/13 20:13:46;;;;;;;;;;;;;;;;;;6248540;23;19919;-73
2023/12/13 20:16:13;;;;;;;;;;;;;;;;;;6248017;23;20401;-73
2023/12/13 20:18:41;;;;;;;;;;;;;;;;;;6248188;23;19919;-73
2023/12/13 20:21:08;;;;;;;;;;;;;;;;;;6247897;23;20339;-73
2023/12/13 20:23:35;;;;;;;;;;;;;;;;;;6248351;23;19924;-73
2023/12/13 20:26:04;;;;;;;;;;;;;;;;;;6248282;23;19919;-73
2023/12/13 20:28:32;;;;;;;;;;;;;;;;;;6248614;23;19924;-73
2023/12/13 20:30:59;;;;;;;;;;;;;;;;;;6247532;23;19952;-73
2023/12/13 20:33:26;;;;;;;;;;;;;;;;;;6247566;23;20358;-73
2023/12/13 20:35:53;;;;;;;;;;;;;;;;;;6247994;23;19926;-70
2023/12/13 20:38:21;;;;;;;;;;;;;;;;;;6248111;23;19943;-70
2023/12/13 20:40:48;;;;;;;;;;;;;;;;;;6247438;23;19919;-70
2023/12/13 20:43:16;;;;;;;;;;;;;;;;;;6247325;23;19923;-69
2023/12/13 20:45:43;;;;;;;;;;;;;;;;;;6247581;23;19923;-70
2023/12/13 20:48:10;;;;;;;;;;;;;;;;;;6247682;23;19919;-70
2023/12/13 20:50:37;;;;;;;;;;;;;;;;;;6247253;23;20258;-70
2023/12/13 20:53:04;;;;;;;;;;;;;;;;;;6247581;23;19927;-70
2023/12/13 20:55:31;;;;;;;;;;;;;;;;;;6247291;23;20378;-70
2023/12/13 20:57:59;;;;;;;;;;;;;;;;;;6247579;23;19927;-70
2023/12/13 21:00:26;;;;;;;;;;;;;;;;;;6247515;23;19951;-70
2023/12/13 21:02:52;;;;;;;;;;;;;;;;;;6247382;23;19927;-70
2023/12/13 21:05:19;;;;;;;;;;;;;;;;;;6247452;23;19920;-69
2023/12/13 21:07:46;;;;;;;;;;;;;;;;;;6247344;23;19927;-69
2023/12/13 21:10:13;;;;;;;;;;;;;;;;;;6247341;23;19919;-70
2023/12/13 21:12:43;;;;;;;;;;;;;;;;;;6247332;23;19926;-70
2023/12/13 21:15:09;;;;;;;;;;;;;;;;;;6247397;23;19942;-71
2023/12/13 21:17:36;;;;;;;;;;;;;;;;;;6247171;23;19919;-70
2023/12/13 21:20:03;;;;;;;;;;;;;;;;;;6246767;23;19920;-70
2023/12/13 21:22:30;;;;;;;;;;;;;;;;;;6247136;23;19920;-70
2023/12/13 21:24:57;;;;;;;;;;;;;;;;;;6247165;23;19943;-70
2023/12/13 21:27:25;;;;;;;;;;;;;;;;;;6247034;23;19920;-70
2023/12/13 21:29:52;;;;;;;;;;;;;;;;;;6247196;23;19947;-70
2023/12/13 21:32:19;;;;;;;;;;;;;;;;;;6246899;23;19926;-70
